RJCCRJCH

Guest
Details From RJCC - NEW CHITOSE
To RJCH - HAKODATE
Flight Number -
Tags generated
Created
Modified
Stats Distance 72 nm / 133 km
Max Altitude 6,000 ft / 1,829 m
Waypoints 4
Social Downloads 1
Likes 0
Share VATSIM

Download

Looking for another format? Having issues loading an existing format? Contact us
Advertisement - Login to hide

Notes

Basic altitude profile: - Ascent Rate: 2500ft/min - Ascent Speed: 250kts - Cruise Altitude: 35000ft - Cruise Speed: 420kts - Descent Rate: 1500ft/min - Descent Speed: 250kts Options: - Use NATs: yes - Use PACOTS: yes - Use low airways: yes - Use high airways: yes

Route

RJCC ESANN V30 HWE RJCH

ID Type Via Altitude Latitude Longitude Leg Dist Tot Dist Heading (true) Name
O RJCC APT - 0 ft / 0 m 42.77521˚ 141.69228˚ - 0 nm - NEW CHITOSE
ESANN FIX - 4,500 ft / 1,372 m 42.05602˚ 141.09099˚ 50 nm 50 nm 212° / 211° -
HWE VOR V30 (AWY-LO) 6,000 ft / 1,829 m 41.77403˚ 140.83222˚ 20 nm 71 nm 214° / 214° HAKODATE VOR-DME
O RJCH APT - 0 ft / 0 m 41.77016˚ 140.82203˚ 0 nm 71 nm 243° / 243° HAKODATE

Altitude Profile

Advertisement - Login to hide

RJCC

Details ICAO RJCC (CTS)
Name NEW CHITOSE
Region Japan
Timezone Asia/Tokyo (UTC+9.0)
Stats Elevation 82 ft / 25 m (AMSL)
Location 42.775206° 141.692283°
Runways 2
Magnetic Variation 9.407° W

METAR

RJCC 220600Z 17009KT CAVOK 23/07 Q1013

Decode

TAF

TAF RJCC 220505Z 2206/2312 17008KT 9999 FEW040 BECMG 2300/2303 17018KT TEMPO 2309/2312 FEW005 BKN008

Decode

Departure Runways

ID Width Length Bearing (true) Bearing (mag) Surface Threshold Offset Overrun Length
01L 200 ft / 61 m 9,859 ft / 3,005 m 352.64° 2.05° Asphalt 0 ft / 0 m 185 ft / 56 m
01R 200 ft / 61 m 9,854 ft / 3,004 m 352.64° 2.05° Asphalt 0 ft / 0 m 185 ft / 56 m
19L 200 ft / 61 m 9,854 ft / 3,004 m 172.64° 182.05° Asphalt 0 ft / 0 m 185 ft / 56 m
19R 200 ft / 61 m 9,859 ft / 3,005 m 172.63° 182.04° Asphalt 0 ft / 0 m 185 ft / 56 m

RJCH

Details ICAO RJCH (HKD)
Name HAKODATE
Region Japan
Timezone Asia/Tokyo (UTC+9.0)
Stats Elevation 151 ft / 46 m (AMSL)
Location 41.770161° 140.822030°
Runways 1
Magnetic Variation 9.257° W

METAR

RJCH 220600Z 16006KT 120V210 9999 FEW045 16/09 Q1016

Decode

TAF

TAF RJCH 220512Z 2206/2312 23009KT 9999 FEW030 BECMG 2207/2209 05006KT

Decode

Destination Runways

ID Width Length Bearing (true) Bearing (mag) Surface Threshold Offset Overrun Length
12 150 ft / 46 m 9,814 ft / 2,991 m 108.09° 117.35° Asphalt 0 ft / 0 m 197 ft / 60 m
30 150 ft / 46 m 9,814 ft / 2,991 m 288.11° 297.37° Asphalt 0 ft / 0 m 197 ft / 60 m

Approach Navaids

Runway Type Ident Frequency Range Bearing (true) Bearing (mag) Slope Elevation
12 Localiser IHL 109.30 MHz 18 nm / 33 km 108.05° 117.31° - 51 ft / 16 m (AMSL)
12 Glidescope IHL 109.30 MHz 10 nm / 19 km 108.10° 117.36° 3.00° 151 ft / 46 m (AMSL)
12 DME IHL 109.30 MHz 18 nm / 33 km - - - 111 ft / 34 m (AMSL)

Popular Alternatives